createdAt,value
2023-04-04T00:00:25.661Z,4.30
2023-04-04T00:02:52.544Z,4.30
2023-04-04T00:05:19.515Z,4.30
2023-04-04T00:07:47.297Z,4.20
2023-04-04T00:10:14.763Z,4.20
2023-04-04T00:12:42.504Z,4.20
2023-04-04T00:15:10.010Z,4.20
2023-04-04T00:17:36.875Z,4.10
2023-04-04T00:20:04.357Z,4.10
2023-04-04T00:22:31.619Z,4.00
2023-04-04T00:24:59.136Z,4.00
2023-04-04T00:27:26.283Z,4.00
2023-04-04T00:29:53.350Z,4.00
2023-04-04T00:32:20.406Z,3.90
2023-04-04T00:34:52.471Z,3.90
2023-04-04T00:37:19.236Z,3.90
2023-04-04T00:39:45.984Z,3.80
2023-04-04T00:42:12.813Z,3.80
2023-04-04T00:44:39.545Z,3.70
2023-04-04T00:47:06.350Z,3.70
2023-04-04T00:49:34.505Z,3.70
2023-04-04T00:52:01.220Z,3.60
2023-04-04T00:54:27.974Z,3.70
2023-04-04T00:56:55.512Z,3.60
2023-04-04T00:59:24.036Z,3.60
2023-04-04T01:01:51.085Z,3.50
2023-04-04T01:04:18.521Z,3.50
2023-04-04T01:06:45.908Z,3.50
2023-04-04T01:09:13.224Z,3.50
2023-04-04T01:11:40.753Z,3.40
2023-04-04T01:14:07.694Z,3.30
2023-04-04T01:16:36.253Z,3.30
2023-04-04T01:19:04.582Z,3.30
2023-04-04T01:21:31.475Z,3.30
2023-04-04T01:24:04.986Z,3.20
2023-04-04T01:26:32.039Z,3.20
2023-04-04T01:28:59.557Z,3.20
2023-04-04T01:31:29.593Z,3.20
2023-04-04T01:34:06.836Z,3.20
2023-04-04T01:36:44.078Z,3.10
2023-04-04T01:39:34.188Z,3.10
2023-04-04T01:42:02.390Z,3.00
2023-04-04T01:44:29.246Z,3.00
2023-04-04T01:46:56.076Z,3.00
2023-04-04T01:49:23.476Z,2.90
2023-04-04T01:51:53.610Z,2.90
2023-04-04T01:54:20.387Z,2.90
2023-04-04T01:56:47.186Z,2.80
2023-04-04T01:59:14.003Z,2.80
2023-04-04T02:01:40.881Z,2.80
2023-04-04T02:04:08.715Z,2.80
2023-04-04T02:06:36.269Z,2.80
2023-04-04T02:09:03.256Z,2.70
2023-04-04T02:11:29.988Z,2.70
2023-04-04T02:13:57.259Z,2.70
2023-04-04T02:16:24.032Z,2.60
2023-04-04T02:18:50.821Z,2.60
2023-04-04T02:21:17.567Z,2.60
2023-04-04T02:23:44.339Z,2.60
2023-04-04T02:26:11.275Z,2.50
2023-04-04T02:28:38.053Z,2.50
2023-04-04T02:31:04.910Z,2.50
2023-04-04T02:33:31.917Z,2.40
2023-04-04T02:35:59.590Z,2.40
2023-04-04T02:38:26.564Z,2.40
2023-04-04T02:40:53.442Z,2.30
2023-04-04T02:43:20.383Z,2.30
2023-04-04T02:45:49.911Z,2.30
2023-04-04T02:48:16.937Z,2.30
2023-04-04T02:50:44.017Z,2.30
2023-04-04T02:53:11.344Z,2.30
2023-04-04T02:55:38.046Z,2.30
2023-04-04T02:58:04.798Z,2.20
2023-04-04T03:00:31.564Z,2.20
2023-04-04T03:02:58.570Z,2.20
2023-04-04T03:05:26.872Z,2.20
2023-04-04T03:07:56.302Z,2.20
2023-04-04T03:10:30.085Z,2.10
2023-04-04T03:12:57.480Z,2.10
2023-04-04T03:15:25.627Z,2.00
2023-04-04T03:17:52.906Z,2.00
2023-04-04T03:20:19.830Z,2.00
2023-04-04T03:22:46.887Z,1.90
2023-04-04T03:25:13.715Z,1.90
2023-04-04T03:27:40.551Z,1.90
2023-04-04T03:30:11.028Z,1.90
2023-04-04T03:32:39.331Z,1.90
2023-04-04T03:35:07.121Z,1.80
2023-04-04T03:37:34.353Z,1.80
2023-04-04T03:40:01.168Z,1.70
2023-04-04T03:42:28.071Z,1.70
2023-04-04T03:44:54.887Z,1.70
2023-04-04T03:47:21.709Z,1.60
2023-04-04T03:49:51.426Z,1.60
2023-04-04T03:52:18.759Z,1.50
2023-04-04T03:54:46.107Z,1.50
2023-04-04T03:57:12.914Z,1.50
2023-04-04T03:59:39.704Z,1.40
2023-04-04T04:02:06.912Z,1.40
2023-04-04T04:04:33.750Z,1.40
2023-04-04T04:07:02.319Z,1.40
2023-04-04T04:09:29.074Z,1.40
2023-04-04T04:11:56.496Z,1.40
2023-04-04T04:14:23.296Z,1.30
2023-04-04T04:16:50.189Z,1.30
2023-04-04T04:19:17.226Z,1.20
2023-04-04T04:21:44.066Z,1.20
2023-04-04T04:24:11.074Z,1.20
2023-04-04T04:26:37.891Z,1.20
2023-04-04T04:29:04.838Z,1.10
2023-04-04T04:31:31.769Z,1.10
2023-04-04T04:33:58.612Z,1.00
2023-04-04T04:36:25.676Z,1.00
2023-04-04T04:38:52.432Z,1.00
2023-04-04T04:41:19.187Z,1.00
2023-04-04T04:43:45.940Z,1.00
2023-04-04T04:46:13.197Z,0.90
2023-04-04T04:48:39.982Z,0.90
2023-04-04T04:51:06.827Z,0.90
2023-04-04T04:53:33.607Z,0.80
2023-04-04T04:56:00.392Z,0.90
2023-04-04T04:58:28.642Z,0.80
2023-04-04T05:00:59.236Z,0.80
2023-04-04T05:03:26.342Z,0.80
2023-04-04T05:05:53.433Z,0.70
2023-04-04T05:08:20.232Z,0.70
2023-04-04T05:10:46.999Z,0.70
2023-04-04T05:13:14.151Z,0.70
2023-04-04T05:15:41.175Z,0.70
2023-04-04T05:18:07.926Z,0.60
2023-04-04T05:20:35.328Z,0.60
2023-04-04T05:23:02.613Z,0.60
2023-04-04T05:25:29.386Z,0.60
2023-04-04T05:27:57.662Z,0.60
2023-04-04T05:30:24.764Z,0.60
2023-04-04T05:32:52.701Z,0.60
2023-04-04T05:35:19.536Z,0.50
2023-04-04T05:37:46.404Z,0.50
2023-04-04T05:40:13.306Z,0.50
2023-04-04T05:42:40.066Z,0.50
2023-04-04T05:45:07.482Z,0.40
2023-04-04T05:47:34.473Z,0.40
2023-04-04T05:50:01.569Z,0.40
2023-04-04T05:52:28.448Z,0.40
2023-04-04T05:54:55.181Z,0.40
2023-04-04T05:57:23.480Z,0.40
2023-04-04T05:59:51.629Z,0.40
2023-04-04T06:02:18.616Z,0.40
2023-04-04T06:04:45.649Z,0.40
2023-04-04T06:07:12.534Z,0.40
2023-04-04T06:09:40.929Z,0.50
2023-04-04T06:12:09.219Z,0.40
2023-04-04T06:14:36.463Z,0.50
2023-04-04T06:17:04.381Z,0.50
2023-04-04T06:19:31.300Z,0.50
2023-04-04T06:21:58.075Z,0.60
2023-04-04T06:24:24.840Z,0.60
2023-04-04T06:26:52.802Z,0.60
2023-04-04T06:29:19.628Z,0.60
2023-04-04T06:31:46.422Z,0.70
2023-04-04T06:34:13.293Z,0.70
2023-04-04T06:36:40.061Z,0.70
2023-04-04T06:39:06.817Z,0.80
2023-04-04T06:41:33.594Z,0.80
2023-04-04T06:44:00.636Z,0.80
2023-04-04T06:46:27.943Z,0.80
2023-04-04T06:48:54.985Z,0.80
2023-04-04T06:51:21.914Z,0.90
2023-04-04T06:53:49.423Z,0.90
2023-04-04T06:56:16.598Z,1.00
2023-04-04T06:58:43.356Z,1.00
2023-04-04T07:01:10.201Z,1.00
2023-04-04T07:03:37.650Z,1.00
2023-04-04T07:06:04.885Z,1.00
2023-04-04T07:08:36.288Z,1.10
2023-04-04T07:11:04.331Z,1.10
2023-04-04T07:13:31.050Z,1.30
2023-04-04T07:15:57.801Z,1.40
2023-04-04T07:18:24.538Z,1.40
2023-04-04T07:20:51.276Z,1.50
2023-04-04T07:23:18.161Z,1.50
2023-04-04T07:25:44.971Z,1.60
2023-04-04T07:28:13.535Z,1.70
2023-04-04T07:30:40.843Z,1.70
2023-04-04T07:33:08.064Z,1.80
2023-04-04T07:35:35.538Z,1.80
2023-04-04T07:38:03.150Z,1.90
2023-04-04T07:40:30.182Z,1.90
2023-04-04T07:42:56.965Z,2.00
2023-04-04T07:45:23.811Z,2.10
2023-04-04T07:47:50.724Z,2.20
2023-04-04T07:50:17.552Z,2.20
2023-04-04T07:52:49.971Z,2.20
2023-04-04T07:55:17.119Z,2.30
2023-04-04T07:57:44.760Z,2.50
2023-04-04T08:00:12.257Z,2.50
2023-04-04T08:02:39.459Z,2.60
2023-04-04T08:05:06.998Z,2.60
2023-04-04T08:07:33.772Z,2.60
2023-04-04T08:10:00.545Z,2.70
2023-04-04T08:12:27.888Z,2.70
2023-04-04T08:14:54.673Z,2.80
2023-04-04T08:17:22.014Z,2.80
2023-04-04T08:19:48.758Z,2.90
2023-04-04T08:22:15.491Z,3.00
2023-04-04T08:24:42.714Z,3.10
2023-04-04T08:27:09.483Z,3.40
2023-04-04T08:29:36.261Z,3.60
2023-04-04T08:32:02.984Z,3.90
2023-04-04T08:34:29.923Z,4.10
2023-04-04T08:36:57.137Z,4.30
2023-04-04T08:39:23.943Z,4.40
2023-04-04T08:41:57.994Z,5.10
2023-04-04T08:44:25.127Z,5.70
2023-04-04T08:46:52.254Z,5.80
2023-04-04T08:49:23.123Z,5.90
2023-04-04T08:51:52.381Z,5.90
2023-04-04T08:54:21.030Z,5.90
2023-04-04T08:56:48.375Z,5.90
2023-04-04T08:59:19.013Z,5.90
2023-04-04T09:01:46.017Z,5.90
2023-04-04T09:04:12.828Z,5.90
2023-04-04T09:06:40.276Z,5.90
2023-04-04T09:09:07.619Z,5.90
2023-04-04T09:11:34.998Z,5.80
2023-04-04T09:14:05.197Z,5.90
2023-04-04T09:16:32.109Z,5.90
2023-04-04T09:18:58.921Z,6.10
2023-04-04T09:21:26.316Z,6.20
2023-04-04T09:24:00.177Z,6.10
2023-04-04T09:26:27.223Z,6.20
2023-04-04T09:28:54.027Z,6.40
2023-04-04T09:31:20.814Z,6.50
2023-04-04T09:33:48.911Z,6.40
2023-04-04T09:36:18.148Z,6.50
2023-04-04T09:38:49.450Z,6.50
2023-04-04T09:41:16.692Z,6.50
2023-04-04T09:43:45.833Z,6.50
2023-04-04T09:46:13.004Z,6.50
2023-04-04T09:48:42.061Z,6.40
2023-04-04T09:51:12.616Z,6.50
2023-04-04T09:53:42.103Z,6.60
2023-04-04T09:56:09.497Z,6.60
2023-04-04T09:58:36.684Z,6.70
2023-04-04T10:01:09.958Z,6.70
2023-04-04T10:03:40.733Z,6.70
2023-04-04T10:06:08.223Z,6.80
2023-04-04T10:08:39.210Z,6.80
2023-04-04T10:11:12.084Z,6.90
2023-04-04T10:13:46.647Z,6.90
2023-04-04T10:16:13.632Z,7.00
2023-04-04T10:18:40.522Z,7.00
2023-04-04T10:23:39.577Z,7.10
2023-04-04T10:26:06.677Z,7.20
2023-04-04T10:28:34.507Z,7.30
2023-04-04T10:31:06.768Z,7.30
2023-04-04T10:33:55.693Z,7.30
2023-04-04T10:36:29.910Z,7.40
2023-04-04T10:39:12.012Z,7.40
2023-04-04T10:41:39.921Z,7.50
2023-04-04T10:44:15.054Z,7.50
2023-04-04T10:46:42.265Z,7.50
2023-04-04T10:49:09.107Z,7.60
2023-04-04T10:51:45.145Z,7.70
2023-04-04T10:54:20.508Z,7.80
2023-04-04T10:56:48.079Z,7.80
2023-04-04T10:59:17.217Z,7.90
2023-04-04T11:01:48.932Z,8.00
2023-04-04T11:04:20.265Z,8.10
2023-04-04T11:07:06.506Z,8.10
2023-04-04T11:09:51.859Z,8.00
2023-04-04T11:12:51.622Z,8.00
2023-04-04T11:15:25.487Z,8.20
2023-04-04T11:17:56.329Z,8.20
2023-04-04T11:20:37.793Z,8.30
2023-04-04T11:23:06.567Z,8.50
2023-04-04T11:25:35.137Z,8.60
2023-04-04T11:28:29.285Z,8.70
2023-04-04T11:31:18.444Z,8.80
2023-04-04T11:34:00.505Z,8.80
2023-04-04T11:36:36.282Z,8.80
2023-04-04T11:39:15.844Z,8.90
2023-04-04T11:42:10.671Z,9.10
2023-04-04T11:45:02.054Z,9.20
2023-04-04T11:47:29.582Z,9.20
2023-04-04T11:49:57.097Z,9.20
2023-04-04T11:52:25.377Z,9.40
2023-04-04T11:54:52.709Z,9.50
2023-04-04T11:57:21.188Z,9.40
2023-04-04T11:59:52.226Z,9.50
2023-04-04T12:02:22.029Z,9.60
2023-04-04T12:04:49.290Z,9.70
2023-04-04T12:07:17.416Z,9.90
2023-04-04T12:09:44.399Z,9.90
2023-04-04T12:12:16.480Z,10.10
2023-04-04T12:14:43.572Z,10.20
2023-04-04T12:17:11.128Z,10.30
2023-04-04T12:19:40.378Z,10.40
2023-04-04T12:22:08.386Z,10.60
2023-04-04T12:24:36.926Z,10.60
2023-04-04T12:27:04.068Z,10.70
2023-04-04T12:29:38.720Z,10.80
2023-04-04T12:32:06.391Z,10.80
2023-04-04T12:34:35.224Z,10.90
2023-04-04T12:37:02.867Z,11.00
2023-04-04T12:39:30.236Z,11.10
2023-04-04T12:42:05.402Z,11.30
2023-04-04T12:44:32.195Z,11.40
2023-04-04T12:47:09.805Z,11.60
2023-04-04T12:49:40.378Z,11.60
2023-04-04T12:52:09.032Z,11.60
2023-04-04T12:54:39.280Z,11.80
2023-04-04T12:57:07.452Z,11.90
2023-04-04T12:59:37.266Z,12.00
2023-04-04T13:02:07.800Z,12.20
2023-04-04T13:04:34.995Z,12.30
2023-04-04T13:07:03.066Z,12.60
2023-04-04T13:09:30.126Z,12.70
2023-04-04T13:11:59.870Z,12.90
2023-04-04T13:14:47.556Z,13.00
2023-04-04T13:17:14.385Z,13.00
2023-04-04T13:19:41.377Z,13.10
2023-04-04T13:22:09.417Z,13.20
2023-04-04T13:24:36.197Z,13.40
2023-04-04T13:27:02.946Z,13.50
2023-04-04T13:29:29.814Z,13.50
2023-04-04T13:31:57.197Z,13.70
2023-04-04T13:34:24.312Z,14.00
2023-04-04T13:36:51.375Z,14.10
2023-04-04T13:39:18.334Z,14.20
2023-04-04T13:41:45.352Z,14.40
2023-04-04T13:44:16.624Z,14.50
2023-04-04T13:46:43.780Z,14.70
2023-04-04T13:49:11.154Z,14.80
2023-04-04T13:51:38.233Z,14.90
2023-04-04T13:54:05.093Z,15.10
2023-04-04T13:56:31.886Z,15.40
2023-04-04T13:58:58.716Z,15.50
2023-04-04T14:01:25.676Z,15.60
2023-04-04T14:03:52.591Z,15.70
2023-04-04T14:06:19.556Z,15.70
2023-04-04T14:08:47.158Z,15.80
2023-04-04T14:11:14.866Z,16.00
2023-04-04T14:13:41.884Z,16.20
2023-04-04T14:16:09.378Z,16.00
2023-04-04T14:18:36.290Z,16.20
2023-04-04T14:21:03.745Z,16.40
2023-04-04T14:23:30.954Z,16.40
2023-04-04T14:25:58.213Z,16.50
2023-04-04T14:28:25.285Z,16.60
2023-04-04T14:30:52.101Z,16.90
2023-04-04T14:33:18.850Z,17.00
2023-04-04T14:35:45.729Z,17.10
2023-04-04T14:38:12.509Z,17.50
2023-04-04T14:40:39.831Z,17.60
2023-04-04T14:43:07.636Z,17.70
2023-04-04T14:45:34.718Z,17.90
2023-04-04T14:48:01.969Z,18.20
2023-04-04T14:50:28.859Z,18.10
2023-04-04T14:52:56.668Z,17.80
2023-04-04T14:55:23.686Z,18.00
2023-04-04T14:58:02.027Z,18.30
2023-04-04T15:00:30.433Z,18.20
2023-04-04T15:02:57.457Z,18.00
2023-04-04T15:05:25.212Z,18.10
2023-04-04T15:07:52.038Z,18.40
2023-04-04T15:10:18.834Z,18.40
2023-04-04T15:12:45.774Z,18.50
2023-04-04T15:15:13.564Z,18.50
2023-04-04T15:17:41.465Z,18.90
2023-04-04T15:20:09.444Z,18.70
2023-04-04T15:22:38.451Z,19.10
2023-04-04T15:25:06.188Z,19.20
2023-04-04T15:27:32.985Z,19.10
2023-04-04T15:29:59.822Z,19.50
2023-04-04T15:32:26.823Z,19.70
2023-04-04T15:34:55.387Z,19.40
2023-04-04T15:37:22.127Z,19.20
2023-04-04T15:39:53.297Z,19.20
2023-04-04T15:42:20.699Z,19.60
2023-04-04T15:44:47.612Z,19.90
2023-04-04T15:47:16.079Z,19.90
2023-04-04T15:49:42.833Z,20.10
2023-04-04T15:52:09.578Z,20.10
2023-04-04T15:54:39.366Z,20.10
2023-04-04T15:57:06.194Z,20.30
2023-04-04T15:59:33.022Z,20.10
2023-04-04T16:01:59.951Z,20.10
2023-04-04T16:04:26.787Z,20.10
2023-04-04T16:06:53.558Z,20.10
2023-04-04T16:09:21.501Z,19.70
2023-04-04T16:11:48.619Z,19.50
2023-04-04T16:14:15.368Z,19.50
2023-04-04T16:16:42.432Z,19.60
2023-04-04T16:19:09.284Z,20.10
2023-04-04T16:21:36.302Z,20.10
2023-04-04T16:24:05.182Z,19.80
2023-04-04T16:26:32.128Z,19.70
2023-04-04T16:28:58.977Z,19.70
2023-04-04T16:31:25.958Z,19.50
2023-04-04T16:33:52.767Z,19.50
2023-04-04T16:36:19.583Z,19.20
2023-04-04T16:38:46.420Z,19.30
2023-04-04T16:41:13.388Z,19.50
2023-04-04T16:43:40.123Z,19.20
2023-04-04T16:46:06.886Z,18.80
2023-04-04T16:48:33.629Z,18.80
2023-04-04T16:51:02.106Z,18.90
2023-04-04T16:53:28.871Z,18.70
2023-04-04T16:55:55.607Z,18.50
2023-04-04T16:58:22.620Z,18.50
2023-04-04T17:00:49.457Z,18.60
2023-04-04T17:03:16.367Z,18.60
2023-04-04T17:05:43.186Z,18.40
2023-04-04T17:08:09.954Z,18.40
2023-04-04T17:10:40.296Z,18.40
2023-04-04T17:13:08.294Z,18.20
2023-04-04T17:15:36.695Z,18.20
2023-04-04T17:18:04.612Z,18.00
2023-04-04T17:20:34.234Z,17.90
2023-04-04T17:23:01.408Z,17.60
2023-04-04T17:25:29.251Z,17.40
2023-04-04T17:27:56.505Z,17.30
2023-04-04T17:30:23.376Z,17.20
2023-04-04T17:32:52.478Z,17.10
2023-04-04T17:35:19.302Z,17.50
2023-04-04T17:37:46.043Z,17.40
2023-04-04T17:40:13.119Z,17.40
2023-04-04T17:42:39.900Z,17.20
2023-04-04T17:45:07.426Z,17.10
2023-04-04T17:47:34.356Z,17.00
2023-04-04T17:50:01.122Z,17.00
2023-04-04T17:52:27.910Z,16.70
2023-04-04T17:54:54.835Z,16.50
2023-04-04T17:57:21.926Z,16.30
2023-04-04T17:59:48.690Z,16.30
2023-04-04T18:02:16.443Z,16.30
2023-04-04T18:04:43.224Z,16.30
2023-04-04T18:07:10.626Z,16.10
2023-04-04T18:09:37.810Z,16.20
2023-04-04T18:12:05.623Z,16.20
2023-04-04T18:14:32.567Z,16.00
2023-04-04T18:16:59.475Z,15.90
2023-04-04T18:19:26.282Z,15.90
2023-04-04T18:21:59.670Z,15.90
2023-04-04T18:24:28.036Z,15.80
2023-04-04T18:26:55.103Z,15.80
2023-04-04T18:29:23.160Z,16.00
2023-04-04T18:31:50.042Z,15.90
2023-04-04T18:34:16.929Z,15.80
2023-04-04T18:36:43.928Z,15.70
2023-04-04T18:39:11.123Z,15.80
2023-04-04T18:41:38.145Z,15.80
2023-04-04T18:44:05.124Z,15.80
2023-04-04T18:46:32.071Z,15.80
2023-04-04T18:48:58.940Z,15.90
2023-04-04T18:51:26.330Z,15.90
2023-04-04T18:53:53.051Z,15.60
2023-04-04T18:56:19.932Z,15.30
2023-04-04T18:58:46.810Z,15.20
2023-04-04T19:01:13.733Z,15.10
2023-04-04T19:03:42.794Z,15.20
2023-04-04T19:06:12.821Z,15.20
2023-04-04T19:08:41.297Z,15.30
2023-04-04T19:11:09.047Z,15.10
2023-04-04T19:13:35.998Z,15.10
2023-04-04T19:16:02.899Z,15.10
2023-04-04T19:18:29.756Z,14.90
2023-04-04T19:20:58.446Z,14.90
2023-04-04T19:23:25.515Z,14.90
2023-04-04T19:25:52.387Z,14.90
2023-04-04T19:28:19.149Z,14.80
2023-04-04T19:30:47.684Z,14.60
2023-04-04T19:33:20.914Z,14.60
2023-04-04T19:36:00.278Z,14.50
2023-04-04T19:38:32.990Z,14.50
2023-04-04T19:41:07.521Z,14.40
2023-04-04T19:43:34.370Z,14.30
2023-04-04T19:46:09.621Z,14.20
2023-04-04T19:48:53.618Z,14.10
2023-04-04T19:51:20.461Z,14.00
2023-04-04T19:53:52.238Z,13.90
2023-04-04T19:56:23.281Z,13.80
2023-04-04T19:58:54.945Z,13.70
2023-04-04T20:01:23.320Z,13.60
2023-04-04T20:03:50.678Z,13.60
2023-04-04T20:06:28.361Z,13.50
2023-04-04T20:08:56.942Z,13.40
2023-04-04T20:11:34.387Z,13.30
2023-04-04T20:14:10.021Z,13.10
2023-04-04T20:16:37.234Z,13.00
2023-04-04T20:19:08.456Z,13.00
2023-04-04T20:21:35.851Z,12.90
2023-04-04T20:24:09.988Z,12.80
2023-04-04T20:26:51.136Z,12.80
2023-04-04T20:29:21.827Z,12.70
2023-04-04T20:31:55.912Z,12.50
2023-04-04T20:34:26.087Z,12.50
2023-04-04T20:36:52.859Z,12.40
2023-04-04T20:39:41.114Z,12.30
2023-04-04T20:42:17.233Z,12.30
2023-04-04T20:44:44.304Z,12.10
2023-04-04T20:47:39.118Z,12.00
2023-04-04T20:50:17.541Z,12.00
2023-04-04T20:52:49.921Z,11.80
2023-04-04T20:55:20.665Z,11.50
2023-04-04T20:57:47.926Z,11.50
2023-04-04T21:00:30.097Z,11.60
2023-04-04T21:02:59.130Z,11.50
2023-04-04T21:05:30.868Z,11.20
2023-04-04T21:07:58.677Z,10.90
2023-04-04T21:10:28.474Z,10.70
2023-04-04T21:12:58.935Z,10.60
2023-04-04T21:15:30.640Z,10.50
2023-04-04T21:18:02.401Z,10.50
2023-04-04T21:20:47.672Z,10.40
2023-04-04T21:23:53.102Z,10.50
2023-04-04T21:26:26.666Z,10.50
2023-04-04T21:28:53.790Z,10.30
2023-04-04T21:31:22.120Z,10.20
2023-04-04T21:33:50.408Z,10.20
2023-04-04T21:36:20.968Z,10.20
2023-04-04T21:38:47.803Z,10.00
2023-04-04T21:41:26.138Z,10.00
2023-04-04T21:43:54.875Z,10.00
2023-04-04T21:46:26.093Z,10.00
2023-04-04T21:48:53.608Z,10.10
2023-04-04T21:51:20.549Z,10.10
2023-04-04T21:53:48.164Z,10.00
2023-04-04T21:56:16.288Z,9.90
2023-04-04T21:58:43.039Z,9.90
2023-04-04T22:01:09.858Z,9.70
2023-04-04T22:03:40.684Z,9.50
2023-04-04T22:06:07.595Z,9.40
2023-04-04T22:08:34.405Z,9.20
2023-04-04T22:11:02.280Z,9.10
2023-04-04T22:13:42.947Z,9.10
2023-04-04T22:16:16.082Z,9.10
2023-04-04T22:18:47.829Z,9.10
2023-04-04T22:21:15.547Z,9.10
2023-04-04T22:23:42.772Z,9.10
2023-04-04T22:26:13.851Z,9.10
2023-04-04T22:28:41.960Z,9.00
2023-04-04T22:31:09.099Z,8.90
2023-04-04T22:33:35.830Z,8.90
2023-04-04T22:36:03.712Z,8.60
2023-04-04T22:38:30.487Z,8.50
2023-04-04T22:40:58.395Z,8.50
2023-04-04T22:43:28.641Z,8.50
2023-04-04T22:45:55.551Z,8.10
2023-04-04T22:48:25.638Z,8.20
2023-04-04T22:50:56.027Z,8.10
2023-04-04T22:53:26.464Z,8.20
2023-04-04T22:55:58.394Z,8.20
2023-04-04T22:58:25.319Z,8.10
2023-04-04T23:00:52.105Z,8.10
2023-04-04T23:03:18.908Z,8.10
2023-04-04T23:05:45.655Z,8.00
2023-04-04T23:08:12.425Z,8.00
2023-04-04T23:10:39.431Z,7.90
2023-04-04T23:13:06.432Z,7.80
2023-04-04T23:15:35.698Z,7.80
2023-04-04T23:18:02.684Z,7.70
2023-04-04T23:20:32.104Z,7.70
2023-04-04T23:22:59.174Z,7.60
2023-04-04T23:25:26.454Z,7.50
2023-04-04T23:27:53.961Z,7.50
2023-04-04T23:30:23.144Z,7.40
2023-04-04T23:32:50.613Z,7.30
2023-04-04T23:35:17.636Z,7.30
2023-04-04T23:37:44.445Z,7.20
2023-04-04T23:40:11.891Z,7.20
2023-04-04T23:42:38.693Z,7.10
2023-04-04T23:45:06.257Z,7.00
2023-04-04T23:47:33.266Z,6.80
2023-04-04T23:50:00.252Z,6.60
2023-04-04T23:52:27.111Z,6.60
2023-04-04T23:54:53.885Z,6.60
2023-04-04T23:57:20.711Z,6.50
2023-04-04T23:59:47.438Z,6.50
